Time;durP1;ratioP1;P1;durP2;ratioP2;P2;SDS_P1;SDS_P2;PMS_P1;PMS_P2;Temp;Humidity;BMP_temperature;BMP_pressure;BME280_temperature;BME280_humidity;BME280_pressure;Samples;Min_cycle;Max_cycle;Signal;HPM_P1;HPM_P2
2024/03/15 00:00:14;;;;;;;3.63;1.63;;;;;;;;;;5074283;28;20501;-66
2024/03/15 00:02:40;;;;;;;2.47;1.60;;;;;;;;;;5068366;28;20548;-65
2024/03/15 00:05:08;;;;;;;3.10;1.90;;;;;;;;;;5075600;28;20049;-66
2024/03/15 00:07:34;;;;;;;2.28;1.70;;;;;;;;;;5076708;28;20028;-65
2024/03/15 00:10:00;;;;;;;1.98;1.60;;;;;;;;;;5074667;28;20044;-65
2024/03/15 00:12:26;;;;;;;2.63;1.65;;;;;;;;;;5067946;28;20510;-66
2024/03/15 00:14:52;;;;;;;3.78;1.83;;;;;;;;;;5075997;28;20052;-65
2024/03/15 00:17:18;;;;;;;3.67;1.63;;;;;;;;;;5073565;28;20040;-65
2024/03/15 00:19:44;;;;;;;2.22;1.80;;;;;;;;;;5080160;28;20044;-66
2024/03/15 00:22:10;;;;;;;3.42;1.90;;;;;;;;;;5080202;28;20044;-65
2024/03/15 00:24:37;;;;;;;6.35;2.10;;;;;;;;;;5075629;28;20036;-65
2024/03/15 00:27:03;;;;;;;3.22;1.90;;;;;;;;;;5078634;28;20414;-66
2024/03/15 00:29:29;;;;;;;2.30;1.88;;;;;;;;;;5078376;28;20396;-66
2024/03/15 00:31:59;;;;;;;3.00;2.30;;;;;;;;;;5072377;28;20059;-66
2024/03/15 00:34:25;;;;;;;2.38;1.70;;;;;;;;;;5073161;28;20394;-65
2024/03/15 00:36:54;;;;;;;4.80;2.20;;;;;;;;;;5072735;28;20040;-65
2024/03/15 00:39:20;;;;;;;6.28;2.20;;;;;;;;;;5080110;28;20060;-66
2024/03/15 00:41:46;;;;;;;5.68;1.98;;;;;;;;;;5072273;28;20063;-65
2024/03/15 00:44:14;;;;;;;2.83;1.75;;;;;;;;;;5076105;28;20604;-65
2024/03/15 00:46:40;;;;;;;3.13;1.80;;;;;;;;;;5076463;28;20040;-65
2024/03/15 00:49:06;;;;;;;3.85;2.15;;;;;;;;;;5073165;28;20536;-65
2024/03/15 00:51:35;;;;;;;2.88;1.70;;;;;;;;;;5072079;28;20048;-65
2024/03/15 00:54:01;;;;;;;2.90;1.60;;;;;;;;;;5068404;28;20071;-66
2024/03/15 00:56:27;;;;;;;1.73;1.60;;;;;;;;;;5074462;28;20053;-65
2024/03/15 00:58:54;;;;;;;2.80;1.73;;;;;;;;;;5071817;28;20057;-65
2024/03/15 01:01:20;;;;;;;3.42;2.00;;;;;;;;;;5072624;28;20701;-64
2024/03/15 01:03:46;;;;;;;2.70;1.83;;;;;;;;;;5069126;28;20048;-64
2024/03/15 01:06:15;;;;;;;5.25;1.60;;;;;;;;;;5069075;28;20036;-64
2024/03/15 01:08:41;;;;;;;5.03;1.70;;;;;;;;;;5072644;28;20056;-64
2024/03/15 01:11:07;;;;;;;2.72;1.70;;;;;;;;;;5077250;28;20493;-64
2024/03/15 01:13:33;;;;;;;2.22;1.80;;;;;;;;;;5071995;28;20040;-64
2024/03/15 01:16:00;;;;;;;3.00;1.65;;;;;;;;;;5075599;28;20521;-64
2024/03/15 01:18:26;;;;;;;2.72;1.65;;;;;;;;;;5072272;28;20053;-64
2024/03/15 01:20:52;;;;;;;4.70;1.80;;;;;;;;;;5074555;28;20432;-64
2024/03/15 01:23:19;;;;;;;4.43;1.85;;;;;;;;;;5075358;28;20386;-64
2024/03/15 01:25:45;;;;;;;2.33;1.70;;;;;;;;;;5073605;28;20043;-64
2024/03/15 01:28:12;;;;;;;1.98;1.65;;;;;;;;;;5072381;28;20497;-64
2024/03/15 01:30:39;;;;;;;2.05;1.70;;;;;;;;;;5071955;28;20044;-65
2024/03/15 01:33:05;;;;;;;3.15;2.13;;;;;;;;;;5071902;28;20044;-64
2024/03/15 01:35:34;;;;;;;3.55;1.63;;;;;;;;;;5070406;28;20512;-64
2024/03/15 01:38:03;;;;;;;3.47;2.03;;;;;;;;;;5075577;28;20052;-64
2024/03/15 01:40:30;;;;;;;;;;;;;;;;;;5073119;28;20048;-64
2024/03/15 01:42:57;;;;;;;2.78;1.80;;;;;;;;;;5071686;28;19917;-64
2024/03/15 01:45:23;;;;;;;2.95;1.70;;;;;;;;;;5071963;28;20036;-64
2024/03/15 01:47:49;;;;;;;1.80;1.70;;;;;;;;;;5068962;28;20033;-64
2024/03/15 01:50:16;;;;;;;2.40;1.58;;;;;;;;;;5068242;28;20131;-64
2024/03/15 01:52:43;;;;;;;2.40;1.73;;;;;;;;;;5071950;28;20040;-64
2024/03/15 01:55:09;;;;;;;3.55;1.60;;;;;;;;;;5070345;28;20056;-64
2024/03/15 01:57:36;;;;;;;1.90;1.60;;;;;;;;;;5069547;28;20040;-64
2024/03/15 02:00:06;;;;;;;4.75;1.77;;;;;;;;;;5077286;28;20029;-64
2024/03/15 02:02:36;;;;;;;4.70;1.52;;;;;;;;;;5071425;28;20038;-64
2024/03/15 02:05:02;;;;;;;2.20;1.50;;;;;;;;;;5071229;28;20064;-64
2024/03/15 02:07:28;;;;;;;2.00;1.63;;;;;;;;;;5071069;28;20433;-65
2024/03/15 02:09:55;;;;;;;3.10;1.67;;;;;;;;;;5074897;28;20052;-64
2024/03/15 02:12:21;;;;;;;2.50;1.50;;;;;;;;;;5070828;28;20044;-65
2024/03/15 02:14:48;;;;;;;1.45;1.35;;;;;;;;;;5100525;28;20067;-64
2024/03/15 02:17:15;;;;;;;3.58;1.70;;;;;;;;;;5079834;28;20035;-65
2024/03/15 02:19:41;;;;;;;2.70;1.80;;;;;;;;;;5073360;28;20083;-64
2024/03/15 02:22:07;;;;;;;1.80;1.40;;;;;;;;;;5073015;28;20051;-65
2024/03/15 02:24:33;;;;;;;4.47;1.65;;;;;;;;;;5061577;28;20040;-64
2024/03/15 02:27:01;;;;;;;1.83;1.60;;;;;;;;;;5071836;28;20062;-64
2024/03/15 02:29:27;;;;;;;2.78;1.40;;;;;;;;;;5073295;28;20073;-64
2024/03/15 02:31:53;;;;;;;1.50;1.40;;;;;;;;;;5071194;28;20032;-64
2024/03/15 02:34:19;;;;;;;2.40;1.50;;;;;;;;;;5074773;28;20044;-65
2024/03/15 02:36:46;;;;;;;2.30;1.65;;;;;;;;;;5073552;28;20055;-65
2024/03/15 02:39:16;;;;;;;2.55;1.60;;;;;;;;;;5070235;28;20533;-64
2024/03/15 02:41:46;;;;;;;6.95;1.80;;;;;;;;;;5069133;28;20058;-65
2024/03/15 02:44:12;;;;;;;;;;;;;;;;;;5071916;28;20540;-64
2024/03/15 02:46:38;;;;;;;3.42;1.40;;;;;;;;;;5073117;28;19916;-64
2024/03/15 02:49:04;;;;;;;3.30;1.67;;;;;;;;;;5069349;28;20036;-65
2024/03/15 02:51:30;;;;;;;1.65;1.33;;;;;;;;;;5069975;28;20523;-65
2024/03/15 02:53:56;;;;;;;2.60;1.50;;;;;;;;;;5073578;28;20059;-65
2024/03/15 02:56:23;;;;;;;5.25;1.55;;;;;;;;;;5068093;28;20040;-63
2024/03/15 02:58:49;;;;;;;1.55;1.40;;;;;;;;;;5063704;28;20040;-65
2024/03/15 03:01:15;;;;;;;2.58;1.55;;;;;;;;;;5068791;28;20024;-64
2024/03/15 03:03:42;;;;;;;1.73;1.50;;;;;;;;;;5070744;28;20060;-65
2024/03/15 03:06:09;;;;;;;2.78;1.42;;;;;;;;;;5069757;28;20052;-65
2024/03/15 03:08:35;;;;;;;3.20;1.58;;;;;;;;;;5067038;28;20405;-64
2024/03/15 03:11:06;;;;;;;2.20;1.40;;;;;;;;;;5067664;28;20040;-64
2024/03/15 03:13:36;;;;;;;2.28;1.80;;;;;;;;;;5077454;28;20041;-64
2024/03/15 03:16:02;;;;;;;;;;;;;;;;;;5076861;28;20044;-64
2024/03/15 03:18:28;;;;;;;1.77;1.30;;;;;;;;;;5079348;28;19916;-64
2024/03/15 03:20:57;;;;;;;2.38;1.60;;;;;;;;;;5076234;28;20048;-64
2024/03/15 03:23:23;;;;;;;1.52;1.17;;;;;;;;;;5069130;28;20055;-65
2024/03/15 03:25:50;;;;;;;2.28;1.60;;;;;;;;;;5075927;28;20397;-65
2024/03/15 03:28:17;;;;;;;1.77;1.40;;;;;;;;;;5096248;28;20032;-64
2024/03/15 03:30:44;;;;;;;2.33;1.60;;;;;;;;;;5073498;28;20048;-65
2024/03/15 03:33:10;;;;;;;1.70;1.50;;;;;;;;;;5074104;28;20035;-65
2024/03/15 03:35:39;;;;;;;3.60;1.40;;;;;;;;;;5070073;28;20646;-65
2024/03/15 03:38:06;;;;;;;1.63;1.52;;;;;;;;;;5069341;28;20059;-64
2024/03/15 03:40:33;;;;;;;2.65;1.58;;;;;;;;;;5067380;28;20045;-65
2024/03/15 03:43:02;;;;;;;2.15;1.58;;;;;;;;;;5077343;28;20498;-65
2024/03/15 03:45:29;;;;;;;2.67;1.60;;;;;;;;;;5068242;28;20055;-67
2024/03/15 03:47:57;;;;;;;2.45;1.40;;;;;;;;;;5072320;28;20036;-65
2024/03/15 03:50:24;;;;;;;2.40;1.42;;;;;;;;;;5073413;28;20055;-65
2024/03/15 03:52:52;;;;;;;2.45;1.77;;;;;;;;;;5069446;28;20040;-65
2024/03/15 03:55:19;;;;;;;2.17;1.60;;;;;;;;;;5064195;28;20413;-64
2024/03/15 03:57:46;;;;;;;1.70;1.30;;;;;;;;;;5066895;28;20044;-64
2024/03/15 04:00:16;;;;;;;2.20;1.80;;;;;;;;;;5069568;28;20267;-65
2024/03/15 04:02:47;;;;;;;4.13;1.80;;;;;;;;;;5073763;28;20588;-65
2024/03/15 04:05:15;;;;;;;2.70;1.63;;;;;;;;;;5055635;28;20505;-65
2024/03/15 04:07:44;;;;;;;2.40;1.50;;;;;;;;;;5072713;28;20043;-64
2024/03/15 04:10:10;;;;;;;2.88;1.50;;;;;;;;;;5076643;28;20036;-64
2024/03/15 04:12:36;;;;;;;3.92;2.53;;;;;;;;;;5074238;28;20494;-65
2024/03/15 04:15:06;;;;;;;5.72;3.25;;;;;;;;;;5076932;28;20059;-65
2024/03/15 04:17:32;;;;;;;4.53;2.53;;;;;;;;;;5076875;28;20071;-64
2024/03/15 04:19:58;;;;;;;3.80;2.30;;;;;;;;;;5071050;28;20036;-64
2024/03/15 04:22:27;;;;;;;4.63;1.80;;;;;;;;;;5071456;28;20044;-64
2024/03/15 04:24:54;;;;;;;3.50;1.80;;;;;;;;;;5069079;28;20048;-65
2024/03/15 04:27:21;;;;;;;4.63;1.58;;;;;;;;;;5070764;28;20037;-64
2024/03/15 04:29:47;;;;;;;3.70;2.17;;;;;;;;;;5069133;28;20062;-64
2024/03/15 04:32:13;;;;;;;2.20;1.55;;;;;;;;;;5069616;28;20433;-65
2024/03/15 04:34:42;;;;;;;5.07;2.45;;;;;;;;;;5068112;28;20044;-64
2024/03/15 04:37:14;;;;;;;3.55;1.70;;;;;;;;;;5074874;28;20032;-64
2024/03/15 04:39:40;;;;;;;1.50;1.35;;;;;;;;;;5073575;28;20127;-64
2024/03/15 04:42:06;;;;;;;3.92;1.90;;;;;;;;;;5071143;28;20532;-64
2024/03/15 04:44:38;;;;;;;1.95;1.65;;;;;;;;;;5073456;28;20527;-64
2024/03/15 04:47:06;;;;;;;1.90;1.52;;;;;;;;;;5075408;28;20044;-65
2024/03/15 04:49:33;;;;;;;4.32;2.50;;;;;;;;;;5075024;28;20044;-65
2024/03/15 04:51:59;;;;;;;5.20;3.10;;;;;;;;;;5066022;28;20049;-65
2024/03/15 04:54:26;;;;;;;5.88;2.40;;;;;;;;;;5073130;28;20040;-66
2024/03/15 04:56:53;;;;;;;4.20;2.60;;;;;;;;;;5073755;28;20044;-62
2024/03/15 04:59:20;;;;;;;3.22;2.20;;;;;;;;;;5071731;28;20390;-66
2024/03/15 05:01:46;;;;;;;5.15;2.65;;;;;;;;;;5075929;28;20032;-65
2024/03/15 05:04:12;;;;;;;2.97;1.50;;;;;;;;;;5075642;28;20507;-65
2024/03/15 05:06:39;;;;;;;2.97;1.48;;;;;;;;;;5077528;28;20409;-64
2024/03/15 05:09:05;;;;;;;1.45;1.30;;;;;;;;;;5078767;28;20033;-64
2024/03/15 05:11:31;;;;;;;2.08;1.88;;;;;;;;;;5077403;28;20052;-64
2024/03/15 05:13:57;;;;;;;2.13;1.70;;;;;;;;;;5072425;28;20040;-65
2024/03/15 05:16:23;;;;;;;3.70;1.60;;;;;;;;;;5079573;28;20059;-65
2024/03/15 05:18:50;;;;;;;2.35;1.77;;;;;;;;;;5073352;28;20036;-66
2024/03/15 05:21:16;;;;;;;2.05;1.58;;;;;;;;;;5073025;28;20055;-65
2024/03/15 05:23:42;;;;;;;2.55;1.70;;;;;;;;;;5072004;28;20047;-66
2024/03/15 05:26:08;;;;;;;9.68;5.00;;;;;;;;;;5074917;28;20041;-65
2024/03/15 05:28:35;;;;;;;7.13;3.60;;;;;;;;;;5077161;28;20504;-65
2024/03/15 05:31:04;;;;;;;3.10;2.10;;;;;;;;;;5070089;28;20051;-65
2024/03/15 05:33:30;;;;;;;7.03;3.15;;;;;;;;;;5075891;28;20044;-65
2024/03/15 05:35:57;;;;;;;5.32;3.15;;;;;;;;;;5076735;28;20048;-65
2024/03/15 05:38:25;;;;;;;3.40;2.00;;;;;;;;;;5079563;28;20043;-64
2024/03/15 05:40:52;;;;;;;5.57;1.98;;;;;;;;;;5069071;28;20040;-61
2024/03/15 05:43:18;;;;;;;4.05;2.00;;;;;;;;;;5075717;28;20087;-61
2024/03/15 05:45:44;;;;;;;6.57;3.65;;;;;;;;;;5079537;28;20044;-62
2024/03/15 05:48:10;;;;;;;2.83;2.05;;;;;;;;;;5074454;28;20048;-61
2024/03/15 05:50:36;;;;;;;6.43;2.35;;;;;;;;;;5077478;28;20058;-62
2024/03/15 05:53:02;;;;;;;3.25;1.90;;;;;;;;;;5075981;28;20036;-61
2024/03/15 05:55:29;;;;;;;2.10;1.88;;;;;;;;;;5070634;28;20049;-62
2024/03/15 05:57:55;;;;;;;4.80;2.13;;;;;;;;;;5071064;28;20406;-63
2024/03/15 06:00:23;;;;;;;3.58;1.98;;;;;;;;;;5076622;28;20040;-62
2024/03/15 06:02:49;;;;;;;2.47;1.90;;;;;;;;;;5067071;28;20115;-61
2024/03/15 06:05:18;;;;;;;2.78;2.00;;;;;;;;;;5075000;28;20032;-61
2024/03/15 06:07:46;;;;;;;2.10;1.70;;;;;;;;;;5076053;28;20054;-62
2024/03/15 06:10:14;;;;;;;5.28;2.08;;;;;;;;;;5073470;28;20533;-61
2024/03/15 06:12:40;;;;;;;2.65;2.00;;;;;;;;;;5077425;28;20064;-62
2024/03/15 06:15:08;;;;;;;2.92;2.13;;;;;;;;;;5077858;28;20401;-62
2024/03/15 06:17:35;;;;;;;2.92;1.77;;;;;;;;;;5082229;28;20044;-61
2024/03/15 06:20:01;;;;;;;2.08;1.55;;;;;;;;;;5084827;28;20044;-63
2024/03/15 06:22:27;;;;;;;3.10;1.92;;;;;;;;;;5070940;28;20036;-62
2024/03/15 06:24:55;;;;;;;4.20;2.42;;;;;;;;;;5071411;28;20068;-62
2024/03/15 06:27:22;;;;;;;4.13;2.30;;;;;;;;;;5074544;28;20067;-63
2024/03/15 06:29:52;;;;;;;2.53;2.13;;;;;;;;;;5071326;28;20049;-62
2024/03/15 06:32:20;;;;;;;5.40;2.38;;;;;;;;;;5068166;28;20032;-62
2024/03/15 06:34:49;;;;;;;3.00;1.60;;;;;;;;;;5069627;28;20405;-62
2024/03/15 06:37:17;;;;;;;2.40;2.03;;;;;;;;;;5069159;28;20044;-62
2024/03/15 06:42:35;;;;;;;3.40;1.90;;;;;;;;;;5068259;28;20058;-63
2024/03/15 06:45:23;;;;;;;;;;;;;;;;;;5070228;28;20386;-62
2024/03/15 06:48:02;;;;;;;2.58;1.88;;;;;;;;;;5100444;28;19912;-62
2024/03/15 06:50:48;;;;;;;4.07;2.00;;;;;;;;;;5071367;28;20390;-64
2024/03/15 06:53:18;;;;;;;3.97;2.40;;;;;;;;;;5072599;28;20036;-63
2024/03/15 06:55:45;;;;;;;4.53;2.50;;;;;;;;;;5068931;28;20033;-62
2024/03/15 06:58:12;;;;;;;3.70;2.45;;;;;;;;;;5070297;28;20040;-62
2024/03/15 07:00:38;;;;;;;2.92;1.95;;;;;;;;;;5099641;28;20063;-62
2024/03/15 07:03:07;;;;;;;4.95;2.42;;;;;;;;;;5070567;28;20405;-61
2024/03/15 07:05:33;;;;;;;5.22;2.60;;;;;;;;;;5068984;28;20052;-61
2024/03/15 07:07:59;;;;;;;7.18;2.83;;;;;;;;;;5072425;28;20047;-62
2024/03/15 07:10:25;;;;;;;8.45;3.35;;;;;;;;;;5073850;28;20044;-61
2024/03/15 07:12:51;;;;;;;6.18;2.80;;;;;;;;;;5072881;28;20513;-62
2024/03/15 07:15:18;;;;;;;7.07;3.35;;;;;;;;;;5073017;28;20036;-62
2024/03/15 07:17:45;;;;;;;6.60;3.55;;;;;;;;;;5076771;28;20071;-62
2024/03/15 07:20:12;;;;;;;7.80;4.97;;;;;;;;;;5069788;28;20044;-62
2024/03/15 07:22:42;;;;;;;9.13;5.18;;;;;;;;;;5076294;28;20039;-62
2024/03/15 07:25:10;;;;;;;8.80;5.60;;;;;;;;;;5073194;28;20401;-62
2024/03/15 07:27:37;;;;;;;8.88;4.70;;;;;;;;;;5070109;28;20073;-61
2024/03/15 07:30:05;;;;;;;13.20;4.97;;;;;;;;;;5072760;28;20048;-62
2024/03/15 07:32:35;;;;;;;7.93;4.22;;;;;;;;;;5074715;28;20032;-62
2024/03/15 07:35:04;;;;;;;4.47;2.53;;;;;;;;;;5071685;28;20052;-61
2024/03/15 07:37:31;;;;;;;5.70;2.60;;;;;;;;;;5073728;28;20040;-62
2024/03/15 07:39:57;;;;;;;10.90;5.25;;;;;;;;;;5070869;28;20040;-61
2024/03/15 07:42:23;;;;;;;8.63;4.57;;;;;;;;;;5070468;28;20037;-62
2024/03/15 07:44:49;;;;;;;5.30;2.65;;;;;;;;;;5070423;28;20059;-62
2024/03/15 07:47:17;;;;;;;4.90;2.20;;;;;;;;;;5072174;28;20497;-62
2024/03/15 07:49:43;;;;;;;3.65;2.35;;;;;;;;;;5070114;28;20048;-61
2024/03/15 07:52:09;;;;;;;4.90;2.30;;;;;;;;;;5070822;28;20040;-62
2024/03/15 07:54:35;;;;;;;3.80;2.03;;;;;;;;;;5069667;28;20494;-62
2024/03/15 07:57:01;;;;;;;2.33;2.08;;;;;;;;;;5074220;28;20076;-62
2024/03/15 07:59:28;;;;;;;3.53;2.00;;;;;;;;;;5068693;28;20043;-62
2024/03/15 08:01:55;;;;;;;3.60;1.73;;;;;;;;;;5069958;28;20059;-62
2024/03/15 08:04:21;;;;;;;3.13;2.10;;;;;;;;;;5066309;28;20048;-61
2024/03/15 08:06:49;;;;;;;4.15;2.10;;;;;;;;;;5069419;28;20048;-62
2024/03/15 08:09:16;;;;;;;3.97;2.42;;;;;;;;;;5072783;28;20402;-61
2024/03/15 08:11:43;;;;;;;5.88;2.75;;;;;;;;;;5073844;28;20040;-63
2024/03/15 08:14:09;;;;;;;3.33;1.92;;;;;;;;;;5071553;28;20040;-62
2024/03/15 08:16:35;;;;;;;5.55;2.08;;;;;;;;;;5072319;28;20045;-62
2024/03/15 08:19:07;;;;;;;3.05;2.20;;;;;;;;;;5071211;28;20045;-62
2024/03/15 08:21:33;;;;;;;3.63;2.47;;;;;;;;;;5074294;28;20491;-62
2024/03/15 08:24:09;;;;;;;2.92;2.05;;;;;;;;;;5068786;28;20044;-62
2024/03/15 08:26:39;;;;;;;3.83;2.20;;;;;;;;;;5070981;28;20417;-61
2024/03/15 08:29:06;;;;;;;3.83;2.00;;;;;;;;;;5070720;28;20425;-60
2024/03/15 08:31:32;;;;;;;3.45;2.25;;;;;;;;;;5070007;28;20029;-61
2024/03/15 08:34:04;;;;;;;3.55;2.00;;;;;;;;;;5070766;28;20418;-60
2024/03/15 08:36:36;;;;;;;2.38;1.90;;;;;;;;;;5077986;28;20060;-61
2024/03/15 08:39:12;;;;;;;5.07;2.40;;;;;;;;;;5071880;28;20578;-61
2024/03/15 08:41:42;;;;;;;3.38;2.40;;;;;;;;;;5073667;28;20043;-61
2024/03/15 08:44:09;;;;;;;3.08;2.08;;;;;;;;;;5075617;28;20239;-61
2024/03/15 08:46:39;;;;;;;4.05;2.10;;;;;;;;;;5075901;28;20059;-61
2024/03/15 08:49:05;;;;;;;3.42;2.13;;;;;;;;;;5074967;28;20047;-61
2024/03/15 08:51:32;;;;;;;2.75;2.13;;;;;;;;;;5075134;28;20044;-62
2024/03/15 08:53:58;;;;;;;4.50;2.40;;;;;;;;;;5074027;28;20059;-62
2024/03/15 08:56:26;;;;;;;5.78;2.58;;;;;;;;;;5069684;28;20052;-61
2024/03/15 08:58:52;;;;;;;5.50;2.60;;;;;;;;;;5073241;28;20115;-61
2024/03/15 09:01:20;;;;;;;4.22;2.47;;;;;;;;;;5071563;28;20509;-60
2024/03/15 09:03:47;;;;;;;3.27;2.27;;;;;;;;;;5070494;28;20033;-61
2024/03/15 09:06:14;;;;;;;3.13;1.90;;;;;;;;;;5076298;28;20279;-61
2024/03/15 09:08:41;;;;;;;4.05;2.60;;;;;;;;;;5074542;28;20049;-61
2024/03/15 09:11:07;;;;;;;8.73;2.70;;;;;;;;;;5077653;28;20052;-62
2024/03/15 09:13:34;;;;;;;4.18;2.40;;;;;;;;;;5073381;28;20040;-61
2024/03/15 09:16:02;;;;;;;4.20;2.63;;;;;;;;;;5075144;28;20037;-61
2024/03/15 09:18:28;;;;;;;6.97;2.55;;;;;;;;;;5074733;28;20505;-61
2024/03/15 09:20:55;;;;;;;5.22;2.50;;;;;;;;;;5072252;28;20044;-61
2024/03/15 09:23:21;;;;;;;2.83;2.20;;;;;;;;;;5072825;28;20044;-61
2024/03/15 09:25:48;;;;;;;3.72;2.38;;;;;;;;;;5068895;28;20060;-63
2024/03/15 09:28:14;;;;;;;4.22;2.50;;;;;;;;;;5079554;28;20039;-62
2024/03/15 09:30:49;;;;;;;3.35;2.45;;;;;;;;;;5072646;28;20529;-62
2024/03/15 09:33:16;;;;;;;3.88;2.17;;;;;;;;;;5072691;28;20409;-62
2024/03/15 09:35:44;;;;;;;5.82;2.80;;;;;;;;;;5070920;28;20417;-61
2024/03/15 09:38:11;;;;;;;3.55;2.30;;;;;;;;;;5073571;28;20520;-62
2024/03/15 09:40:38;;;;;;;3.45;2.33;;;;;;;;;;5072975;28;20059;-62
2024/03/15 09:43:04;;;;;;;3.67;2.42;;;;;;;;;;5072679;28;20032;-62
2024/03/15 09:45:31;;;;;;;2.95;2.30;;;;;;;;;;5072353;28;20433;-62
2024/03/15 09:47:59;;;;;;;4.00;1.95;;;;;;;;;;5075286;28;20044;-62
2024/03/15 09:50:29;;;;;;;2.72;1.90;;;;;;;;;;5071598;28;20041;-62
2024/03/15 09:52:56;;;;;;;3.15;1.80;;;;;;;;;;5065903;28;20048;-62
2024/03/15 09:55:22;;;;;;;4.30;2.10;;;;;;;;;;5072033;28;20074;-61
2024/03/15 09:57:50;;;;;;;5.63;1.77;;;;;;;;;;5071156;28;20062;-62
2024/03/15 10:00:23;;;;;;;2.70;1.67;;;;;;;;;;5072245;28;20032;-62
2024/03/15 10:02:52;;;;;;;5.65;2.00;;;;;;;;;;5054362;28;20036;-62
2024/03/15 10:05:22;;;;;;;5.47;2.28;;;;;;;;;;5079150;28;20036;-62
2024/03/15 10:07:49;;;;;;;3.00;2.00;;;;;;;;;;5073636;28;20036;-62
2024/03/15 10:10:17;;;;;;;4.32;2.17;;;;;;;;;;5074203;28;20409;-64
2024/03/15 10:12:45;;;;;;;2.58;2.00;;;;;;;;;;5077467;28;20473;-61
2024/03/15 10:15:15;;;;;;;6.22;1.92;;;;;;;;;;5072001;28;20036;-62
2024/03/15 10:17:46;;;;;;;2.42;1.70;;;;;;;;;;5072505;28;20055;-62
2024/03/15 10:20:15;;;;;;;3.30;1.98;;;;;;;;;;5072573;28;20040;-62
2024/03/15 10:22:41;;;;;;;6.93;2.25;;;;;;;;;;5072827;28;20043;-62
2024/03/15 10:25:15;;;;;;;3.80;2.15;;;;;;;;;;5074711;28;20032;-62
2024/03/15 10:27:43;;;;;;;5.25;2.25;;;;;;;;;;5079246;28;20032;-62
2024/03/15 10:30:22;;;;;;;3.10;2.15;;;;;;;;;;5071078;28;20533;-61
2024/03/15 10:32:49;;;;;;;4.43;1.80;;;;;;;;;;5073180;28;20032;-62
2024/03/15 10:35:19;;;;;;;3.20;2.03;;;;;;;;;;5071879;28;20506;-63
2024/03/15 10:37:46;;;;;;;4.72;2.53;;;;;;;;;;5076221;28;20052;-62
2024/03/15 10:40:17;;;;;;;4.65;2.60;;;;;;;;;;5073289;28;20044;-62
2024/03/15 10:42:48;;;;;;;4.13;2.03;;;;;;;;;;5071968;28;20055;-64
2024/03/15 10:45:19;;;;;;;4.82;2.00;;;;;;;;;;5073386;28;20045;-63
2024/03/15 10:47:46;;;;;;;3.53;2.00;;;;;;;;;;5071376;28;20052;-62
2024/03/15 10:50:20;;;;;;;3.95;2.40;;;;;;;;;;5075051;28;20067;-63
2024/03/15 10:52:51;;;;;;;3.33;2.10;;;;;;;;;;5070091;28;20036;-63
2024/03/15 10:55:18;;;;;;;4.97;2.47;;;;;;;;;;5071879;28;20036;-63
2024/03/15 10:57:45;;;;;;;5.65;2.20;;;;;;;;;;5069505;28;20045;-63
2024/03/15 11:00:19;;;;;;;3.45;2.00;;;;;;;;;;5071064;28;20405;-62
2024/03/15 11:02:46;;;;;;;5.25;1.80;;;;;;;;;;5074596;28;20055;-63
2024/03/15 11:05:23;;;;;;;4.30;1.92;;;;;;;;;;5075725;28;20052;-62
2024/03/15 11:08:00;;;;;;;2.80;1.80;;;;;;;;;;5069833;28;20040;-63
2024/03/15 11:10:26;;;;;;;2.95;2.00;;;;;;;;;;5069659;28;20429;-63
2024/03/15 11:12:53;;;;;;;5.95;2.10;;;;;;;;;;5077973;28;20047;-62
2024/03/15 11:15:21;;;;;;;3.75;1.90;;;;;;;;;;5073521;28;20048;-62
2024/03/15 11:17:58;;;;;;;2.92;2.10;;;;;;;;;;5067564;28;20048;-62
2024/03/15 11:20:24;;;;;;;5.53;2.28;;;;;;;;;;5066636;28;20037;-62
2024/03/15 11:22:54;;;;;;;5.25;2.42;;;;;;;;;;5070740;28;20509;-62
2024/03/15 11:25:21;;;;;;;4.53;2.70;;;;;;;;;;5070716;28;20040;-63
2024/03/15 11:27:56;;;;;;;3.30;2.40;;;;;;;;;;5066132;28;20060;-63
2024/03/15 11:30:26;;;;;;;3.28;2.05;;;;;;;;;;5069093;28;20713;-63
2024/03/15 11:32:52;;;;;;;5.68;2.28;;;;;;;;;;5071010;28;20055;-63
2024/03/15 11:35:19;;;;;;;3.08;2.10;;;;;;;;;;5069681;28;20037;-63
2024/03/15 11:37:47;;;;;;;3.88;1.90;;;;;;;;;;5073967;28;20029;-63
2024/03/15 11:40:13;;;;;;;6.63;2.05;;;;;;;;;;5071425;28;20580;-63
2024/03/15 11:42:39;;;;;;;5.50;2.20;;;;;;;;;;5069955;28;20654;-63
2024/03/15 11:45:12;;;;;;;6.50;2.15;;;;;;;;;;5076287;28;20048;-63
2024/03/15 11:47:38;;;;;;;4.55;1.92;;;;;;;;;;5073699;28;20044;-62
2024/03/15 11:50:13;;;;;;;4.88;2.28;;;;;;;;;;5086353;28;20036;-62
2024/03/15 11:52:39;;;;;;;2.92;2.00;;;;;;;;;;5069182;28;20127;-63
2024/03/15 11:55:11;;;;;;;3.50;2.00;;;;;;;;;;5071391;28;20037;-62
2024/03/15 11:57:39;;;;;;;4.35;2.42;;;;;;;;;;5071375;28;20686;-63
2024/03/15 12:00:09;;;;;;;3.38;2.30;;;;;;;;;;5070237;28;20391;-62
2024/03/15 12:02:37;;;;;;;3.08;1.90;;;;;;;;;;5066738;28;20044;-61
2024/03/15 12:05:12;;;;;;;4.05;2.08;;;;;;;;;;5069633;28;20508;-62
2024/03/15 12:07:39;;;;;;;3.13;2.20;;;;;;;;;;5071210;28;20389;-61
2024/03/15 12:10:11;;;;;;;6.45;2.50;;;;;;;;;;5077730;28;20033;-61
2024/03/15 12:12:37;;;;;;;4.68;1.80;;;;;;;;;;5075733;28;20048;-61
2024/03/15 12:15:06;;;;;;;2.50;1.77;;;;;;;;;;5078853;28;20028;-62
2024/03/15 12:17:33;;;;;;;5.55;2.00;;;;;;;;;;5073024;28;20059;-62
2024/03/15 12:19:59;;;;;;;7.15;2.20;;;;;;;;;;5078463;28;20431;-62
2024/03/15 12:22:25;;;;;;;2.78;1.67;;;;;;;;;;5076255;28;20565;-62
2024/03/15 12:24:51;;;;;;;4.45;2.00;;;;;;;;;;5073076;28;20044;-61
2024/03/15 12:27:18;;;;;;;3.28;1.75;;;;;;;;;;5073070;28;20409;-62
2024/03/15 12:29:44;;;;;;;4.05;2.00;;;;;;;;;;5072765;28;20394;-62
2024/03/15 12:32:12;;;;;;;6.18;2.25;;;;;;;;;;5056503;28;20045;-62
2024/03/15 12:34:38;;;;;;;5.70;2.42;;;;;;;;;;5073896;28;20520;-62
2024/03/15 12:37:08;;;;;;;5.85;2.53;;;;;;;;;;5074556;28;20505;-65
2024/03/15 12:39:34;;;;;;;3.53;2.30;;;;;;;;;;5071486;28;20033;-62
2024/03/15 12:42:00;;;;;;;8.07;2.33;;;;;;;;;;5071850;28;20052;-63
2024/03/15 12:44:26;;;;;;;10.02;4.57;;;;;;;;;;5073503;28;20413;-63
2024/03/15 12:46:52;;;;;;;7.50;4.00;;;;;;;;;;5078493;28;20063;-62
2024/03/15 12:49:19;;;;;;;9.60;5.78;;;;;;;;;;5070132;28;20051;-62
2024/03/15 12:51:45;;;;;;;6.00;2.83;;;;;;;;;;5076322;28;20063;-62
2024/03/15 12:54:11;;;;;;;7.25;4.70;;;;;;;;;;5072732;28;20040;-62
2024/03/15 12:56:37;;;;;;;4.32;2.20;;;;;;;;;;5076929;28;20074;-61
2024/03/15 12:59:03;;;;;;;4.18;2.38;;;;;;;;;;5072879;28;20432;-62
2024/03/15 13:01:30;;;;;;;5.60;2.40;;;;;;;;;;5077804;28;20040;-62
2024/03/15 13:03:57;;;;;;;5.90;2.80;;;;;;;;;;5074873;28;20049;-63
2024/03/15 13:06:23;;;;;;;7.07;2.28;;;;;;;;;;5082036;28;20062;-62
2024/03/15 13:08:49;;;;;;;3.78;2.15;;;;;;;;;;5077271;28;20052;-62
2024/03/15 13:11:15;;;;;;;6.47;2.45;;;;;;;;;;5078392;28;20035;-62
2024/03/15 13:13:41;;;;;;;8.48;2.50;;;;;;;;;;5070719;28;20040;-61
2024/03/15 13:16:08;;;;;;;5.28;2.67;;;;;;;;;;5072464;28;20052;-62
2024/03/15 13:18:35;;;;;;;3.63;2.25;;;;;;;;;;5071299;28;20060;-62
2024/03/15 13:21:08;;;;;;;3.90;2.17;;;;;;;;;;5074136;28;20056;-62
2024/03/15 13:23:34;;;;;;;3.08;2.00;;;;;;;;;;5063371;28;20041;-63
2024/03/15 13:26:00;;;;;;;4.47;2.20;;;;;;;;;;5066877;28;20041;-60
2024/03/15 13:28:27;;;;;;;7.07;2.28;;;;;;;;;;5068106;28;20052;-61
2024/03/15 13:30:53;;;;;;;4.63;2.55;;;;;;;;;;5075135;28;20059;-62
2024/03/15 13:33:20;;;;;;;4.53;2.33;;;;;;;;;;5062235;28;20075;-61
2024/03/15 13:35:46;;;;;;;4.70;2.00;;;;;;;;;;5066544;28;20543;-61
2024/03/15 13:38:13;;;;;;;6.15;2.20;;;;;;;;;;5071355;28;20617;-61
2024/03/15 13:40:40;;;;;;;5.22;2.05;;;;;;;;;;5067540;28;20043;-61
2024/03/15 13:43:06;;;;;;;6.90;4.07;;;;;;;;;;5073969;28;20029;-62
2024/03/15 13:45:38;;;;;;;3.15;2.05;;;;;;;;;;5067371;28;20056;-61
2024/03/15 13:48:04;;;;;;;8.68;3.00;;;;;;;;;;5066239;28;20424;-61
2024/03/15 13:50:30;;;;;;;4.70;2.65;;;;;;;;;;5065772;28;20044;-62
2024/03/15 13:52:57;;;;;;;5.10;2.63;;;;;;;;;;5061063;28;20029;-63
2024/03/15 13:55:23;;;;;;;4.63;1.92;;;;;;;;;;5059691;28;20044;-63
2024/03/15 13:57:49;;;;;;;6.55;2.30;;;;;;;;;;5059305;28;20036;-61
2024/03/15 14:00:31;;;;;;;7.22;2.10;;;;;;;;;;5067695;28;20040;-62
2024/03/15 14:03:02;;;;;;;5.57;2.60;;;;;;;;;;5067284;28;20037;-62
2024/03/15 14:05:35;;;;;;;6.70;1.98;;;;;;;;;;5065949;28;20044;-62
2024/03/15 14:08:25;;;;;;;4.82;2.10;;;;;;;;;;5072538;28;20036;-63
2024/03/15 14:10:51;;;;;;;6.53;2.00;;;;;;;;;;5066772;28;20546;-62
2024/03/15 14:13:18;;;;;;;5.57;2.60;;;;;;;;;;5071188;28;20036;-63
2024/03/15 14:15:44;;;;;;;4.07;2.13;;;;;;;;;;5072477;28;20043;-64
2024/03/15 14:18:12;;;;;;;5.07;2.25;;;;;;;;;;5071268;28;20040;-63
2024/03/15 14:20:39;;;;;;;6.97;2.72;;;;;;;;;;5075009;28;20063;-63
2024/03/15 14:23:06;;;;;;;5.72;2.25;;;;;;;;;;5072349;28;20555;-63
2024/03/15 14:25:32;;;;;;;6.00;2.30;;;;;;;;;;5076464;28;20040;-62
2024/03/15 14:28:00;;;;;;;5.97;2.20;;;;;;;;;;5071022;28;20048;-63
2024/03/15 14:30:28;;;;;;;8.20;2.42;;;;;;;;;;5076135;28;20409;-63
2024/03/15 14:32:56;;;;;;;26.42;7.90;;;;;;;;;;5073523;28;20060;-63
2024/03/15 14:35:22;;;;;;;9.60;3.80;;;;;;;;;;5077669;28;20032;-62
2024/03/15 14:37:49;;;;;;;6.45;2.55;;;;;;;;;;5069692;28;20060;-63
2024/03/15 14:40:18;;;;;;;6.82;2.60;;;;;;;;;;5069476;28;20040;-64
2024/03/15 14:42:46;;;;;;;7.28;2.88;;;;;;;;;;5068501;28;20041;-63
2024/03/15 14:45:12;;;;;;;5.13;2.20;;;;;;;;;;5074642;28;20067;-63
2024/03/15 14:47:40;;;;;;;9.15;2.50;;;;;;;;;;5071986;28;20036;-63